createdAt,value
2018-09-23T00:00:17.701Z,1.40
2018-09-23T00:02:46.090Z,1.00
2018-09-23T00:05:14.634Z,1.23
2018-09-23T00:07:43.074Z,1.40
2018-09-23T00:10:11.459Z,1.70
2018-09-23T00:12:39.898Z,1.30
2018-09-23T00:15:08.436Z,1.63
2018-09-23T00:17:36.879Z,1.40
2018-09-23T00:20:05.706Z,1.20
2018-09-23T00:22:34.087Z,1.13
2018-09-23T00:25:02.708Z,1.37
2018-09-23T00:27:31.118Z,1.40
2018-09-23T00:29:59.536Z,1.10
2018-09-23T00:32:27.970Z,1.13
2018-09-23T00:34:56.370Z,1.10
2018-09-23T00:37:24.770Z,1.67
2018-09-23T00:39:53.194Z,1.70
2018-09-23T00:42:21.582Z,1.70
2018-09-23T00:44:50.024Z,1.20
2018-09-23T00:47:18.423Z,1.50
2018-09-23T00:49:46.823Z,1.60
2018-09-23T00:52:15.270Z,2.10
2018-09-23T00:54:43.646Z,1.20
2018-09-23T00:57:12.050Z,1.30
2018-09-23T00:59:40.514Z,1.70
2018-09-23T01:02:08.949Z,1.67
2018-09-23T01:04:37.375Z,1.40
2018-09-23T01:07:05.823Z,2.37
2018-09-23T01:09:34.218Z,1.40
2018-09-23T01:12:02.642Z,1.60
2018-09-23T01:14:31.094Z,1.90
2018-09-23T01:16:59.547Z,1.63
2018-09-23T01:19:27.905Z,1.20
2018-09-23T01:21:56.328Z,1.90
2018-09-23T01:24:24.683Z,1.77
2018-09-23T01:26:53.026Z,1.37
2018-09-23T01:29:21.458Z,1.90
2018-09-23T01:31:49.818Z,1.87
2018-09-23T01:34:18.202Z,1.73
2018-09-23T01:36:46.586Z,1.53
2018-09-23T01:39:14.980Z,2.10
2018-09-23T01:41:43.398Z,1.90
2018-09-23T01:44:11.775Z,2.27
2018-09-23T01:46:40.193Z,1.50
2018-09-23T01:49:08.551Z,1.80
2018-09-23T01:51:36.926Z,1.80
2018-09-23T01:54:05.376Z,1.70
2018-09-23T01:56:33.719Z,1.83
2018-09-23T01:59:02.174Z,2.17
2018-09-23T02:01:30.594Z,1.90
2018-09-23T02:03:58.961Z,2.07
2018-09-23T02:06:27.391Z,2.30
2018-09-23T02:08:55.794Z,1.93
2018-09-23T02:11:24.179Z,2.40
2018-09-23T02:13:52.598Z,2.30
2018-09-23T02:16:20.984Z,2.63
2018-09-23T02:18:49.350Z,2.40
2018-09-23T02:21:17.797Z,2.47
2018-09-23T02:23:46.282Z,2.53
2018-09-23T02:26:14.712Z,2.50
2018-09-23T02:28:43.235Z,3.10
2018-09-23T02:31:11.652Z,2.47
2018-09-23T02:33:40.053Z,3.43
2018-09-23T02:36:08.475Z,3.30
2018-09-23T02:38:36.848Z,3.70
2018-09-23T02:41:05.268Z,3.57
2018-09-23T02:43:33.682Z,4.27
2018-09-23T02:46:02.168Z,4.57
2018-09-23T02:48:30.598Z,4.87
2018-09-23T02:50:59.014Z,5.70
2018-09-23T02:53:27.407Z,5.70
2018-09-23T02:55:55.837Z,5.67
2018-09-23T02:58:24.219Z,6.17
2018-09-23T03:00:52.638Z,6.53
2018-09-23T03:03:21.053Z,6.00
2018-09-23T03:05:49.471Z,6.70
2018-09-23T03:08:17.890Z,4.93
2018-09-23T03:10:46.286Z,4.90
2018-09-23T03:13:14.721Z,5.60
2018-09-23T03:15:43.113Z,5.10
2018-09-23T03:18:11.486Z,4.80
2018-09-23T03:20:40.167Z,4.30
2018-09-23T03:23:08.552Z,3.97
2018-09-23T03:25:36.946Z,3.70
2018-09-23T03:28:05.465Z,3.47
2018-09-23T03:30:33.864Z,2.53
2018-09-23T03:33:02.287Z,2.87
2018-09-23T03:35:30.710Z,2.20
2018-09-23T03:37:59.086Z,1.87
2018-09-23T03:40:27.522Z,2.70
2018-09-23T03:42:55.918Z,2.97
2018-09-23T03:45:24.316Z,2.97
2018-09-23T03:47:52.748Z,3.10
2018-09-23T03:50:21.206Z,2.73
2018-09-23T03:52:49.652Z,2.60
2018-09-23T03:55:18.034Z,3.10
2018-09-23T03:57:46.458Z,2.23
2018-09-23T04:00:14.906Z,2.30
2018-09-23T04:02:43.347Z,1.90
2018-09-23T04:05:11.769Z,1.80
2018-09-23T04:07:40.187Z,2.20
2018-09-23T04:10:08.589Z,2.17
2018-09-23T04:12:36.966Z,1.67
2018-09-23T04:15:05.493Z,1.70
2018-09-23T04:17:33.909Z,1.77
2018-09-23T04:20:02.410Z,1.67
2018-09-23T04:22:35.047Z,1.90
2018-09-23T04:25:03.665Z,1.50
2018-09-23T04:27:32.074Z,1.40
2018-09-23T04:30:00.446Z,1.30
2018-09-23T04:32:28.899Z,1.10
2018-09-23T04:34:57.299Z,1.70
2018-09-23T04:37:25.695Z,1.30
2018-09-23T04:39:54.118Z,1.40
2018-09-23T04:42:22.521Z,1.57
2018-09-23T04:44:51.480Z,1.40
2018-09-23T04:47:19.806Z,1.27
2018-09-23T04:49:48.210Z,0.90
2018-09-23T04:52:16.637Z,1.13
2018-09-23T04:54:45.886Z,1.03
2018-09-23T04:57:14.290Z,0.60
2018-09-23T04:59:42.673Z,0.80
2018-09-23T05:02:11.094Z,0.60
2018-09-23T05:04:39.500Z,0.90
2018-09-23T05:07:07.930Z,1.00
2018-09-23T05:09:36.330Z,0.97
2018-09-23T05:12:04.793Z,1.00
2018-09-23T05:14:33.179Z,0.70
2018-09-23T05:17:01.588Z,1.10
2018-09-23T05:19:30.027Z,0.80
2018-09-23T05:21:58.467Z,1.10
2018-09-23T05:24:26.890Z,0.70
2018-09-23T05:26:55.330Z,1.07
2018-09-23T05:29:23.714Z,1.30
2018-09-23T05:31:52.163Z,1.10
2018-09-23T05:34:20.552Z,1.60
2018-09-23T05:36:48.987Z,1.50
2018-09-23T05:39:17.382Z,1.50
2018-09-23T05:41:45.890Z,1.93
2018-09-23T05:44:14.285Z,2.30
2018-09-23T05:46:42.682Z,2.50
2018-09-23T05:49:11.099Z,2.43
2018-09-23T05:51:39.513Z,3.30
2018-09-23T05:54:07.954Z,3.67
2018-09-23T05:56:36.351Z,4.47
2018-09-23T05:59:04.753Z,4.30
2018-09-23T06:01:33.186Z,4.53
2018-09-23T06:04:01.526Z,4.80
2018-09-23T06:06:30.048Z,5.37
2018-09-23T06:08:58.468Z,6.30
2018-09-23T06:11:26.773Z,6.90
2018-09-23T06:13:55.281Z,7.10
2018-09-23T06:16:23.657Z,5.87
2018-09-23T06:18:52.046Z,6.83
2018-09-23T06:21:20.671Z,7.90
2018-09-23T06:23:49.103Z,39.70
2018-09-23T06:26:17.456Z,18.27
2018-09-23T06:28:45.831Z,19.33
2018-09-23T06:31:14.228Z,8.60
2018-09-23T06:33:42.587Z,13.10
2018-09-23T06:36:11.587Z,16.13
2018-09-23T06:38:39.950Z,7.60
2018-09-23T06:41:08.328Z,9.40
2018-09-23T06:43:36.735Z,7.60
2018-09-23T06:46:05.138Z,6.70
2018-09-23T06:48:33.578Z,4.57
2018-09-23T06:51:02.024Z,5.37
2018-09-23T06:53:30.367Z,4.43
2018-09-23T06:55:58.769Z,4.73
2018-09-23T06:58:27.133Z,4.60
2018-09-23T07:00:55.547Z,5.20
2018-09-23T07:03:23.965Z,5.40
2018-09-23T07:05:52.365Z,5.23
2018-09-23T07:08:20.735Z,5.50
2018-09-23T07:10:49.099Z,4.27
2018-09-23T07:13:17.554Z,4.10
2018-09-23T07:15:45.934Z,4.60
2018-09-23T07:18:14.401Z,3.40
2018-09-23T07:20:43.137Z,4.20
2018-09-23T07:23:11.490Z,3.47
2018-09-23T07:25:39.896Z,3.30
2018-09-23T07:28:08.291Z,3.60
2018-09-23T07:30:37.043Z,4.07
2018-09-23T07:33:05.442Z,3.50
2018-09-23T07:35:33.786Z,3.30
2018-09-23T07:38:02.195Z,3.87
2018-09-23T07:40:30.581Z,3.60
2018-09-23T07:42:59.064Z,3.13
2018-09-23T07:45:27.426Z,4.20
2018-09-23T07:47:55.865Z,4.33
2018-09-23T07:50:24.237Z,4.37
2018-09-23T07:52:52.610Z,4.73
2018-09-23T07:55:21.039Z,4.30
2018-09-23T07:57:49.405Z,5.40
2018-09-23T08:00:17.845Z,3.90
2018-09-23T08:02:46.326Z,3.97
2018-09-23T08:05:14.859Z,3.60
2018-09-23T08:07:43.354Z,3.30
2018-09-23T08:10:11.819Z,3.03
2018-09-23T08:12:40.264Z,3.73
2018-09-23T08:15:08.726Z,3.47
2018-09-23T08:17:37.323Z,3.30
2018-09-23T08:20:05.872Z,3.40
2018-09-23T08:22:34.260Z,3.53
2018-09-23T08:25:02.673Z,3.57
2018-09-23T08:27:31.090Z,3.50
2018-09-23T08:29:59.458Z,3.33
2018-09-23T08:32:27.908Z,3.80
2018-09-23T08:34:56.360Z,3.43
2018-09-23T08:37:24.837Z,3.80
2018-09-23T08:39:53.252Z,3.93
2018-09-23T08:42:21.641Z,3.93
2018-09-23T08:44:50.038Z,2.87
2018-09-23T08:47:18.482Z,4.07
2018-09-23T08:49:46.879Z,3.67
2018-09-23T08:52:15.768Z,2.70
2018-09-23T08:54:44.165Z,3.20
2018-09-23T08:57:12.567Z,3.07
2018-09-23T08:59:41.034Z,2.63
2018-09-23T09:02:09.447Z,3.17
2018-09-23T09:04:37.815Z,3.50
2018-09-23T09:07:06.201Z,2.93
2018-09-23T09:09:34.585Z,2.57
2018-09-23T09:12:03.011Z,2.60
2018-09-23T09:14:31.455Z,2.30
2018-09-23T09:16:59.822Z,2.10
2018-09-23T09:19:28.267Z,1.70
2018-09-23T09:21:56.678Z,2.43
2018-09-23T09:24:25.067Z,1.80
2018-09-23T09:26:53.510Z,2.20
2018-09-23T09:29:21.878Z,24.83
2018-09-23T09:31:50.233Z,1.90
2018-09-23T09:34:18.642Z,2.03
2018-09-23T09:36:47.299Z,2.50
2018-09-23T09:39:15.785Z,2.20
2018-09-23T09:41:44.142Z,2.27
2018-09-23T09:44:12.578Z,1.80
2018-09-23T09:46:40.954Z,1.87
2018-09-23T09:49:09.354Z,1.77
2018-09-23T09:51:37.769Z,1.70
2018-09-23T09:54:06.296Z,1.40
2018-09-23T09:56:34.669Z,1.50
2018-09-23T09:59:03.119Z,1.37
2018-09-23T10:01:31.500Z,1.00
2018-09-23T10:03:59.947Z,1.20
2018-09-23T10:06:28.326Z,0.90
2018-09-23T10:08:56.735Z,0.70
2018-09-23T10:11:25.206Z,0.73
2018-09-23T10:13:53.553Z,0.70
2018-09-23T10:16:22.026Z,0.70
2018-09-23T10:18:50.378Z,0.80
2018-09-23T10:21:18.839Z,0.70
2018-09-23T10:23:47.233Z,0.90
2018-09-23T10:26:15.678Z,1.83
2018-09-23T10:28:44.106Z,0.77
2018-09-23T10:31:12.566Z,1.00
2018-09-23T10:33:40.964Z,0.80
2018-09-23T10:36:09.349Z,1.20
2018-09-23T10:38:37.722Z,0.77
2018-09-23T10:41:06.220Z,0.80
2018-09-23T10:43:34.607Z,1.47
2018-09-23T10:46:03.019Z,0.83
2018-09-23T10:48:31.372Z,0.90
2018-09-23T10:50:59.842Z,0.73
2018-09-23T10:53:28.275Z,0.90
2018-09-23T10:55:56.627Z,0.87
2018-09-23T10:58:25.088Z,0.73
2018-09-23T11:00:53.617Z,0.77
2018-09-23T11:03:22.058Z,0.60
2018-09-23T11:05:50.479Z,0.83
2018-09-23T11:08:19.066Z,0.70
2018-09-23T11:10:47.511Z,0.50
2018-09-23T11:13:15.921Z,0.70
2018-09-23T11:15:44.310Z,0.63
2018-09-23T11:18:12.863Z,0.60
2018-09-23T11:20:41.276Z,0.70
2018-09-23T11:23:09.777Z,0.60
2018-09-23T11:25:38.110Z,1.00
2018-09-23T11:28:06.483Z,0.60
2018-09-23T11:30:35.027Z,0.50
2018-09-23T11:33:03.363Z,0.60
2018-09-23T11:35:31.731Z,0.90
2018-09-23T11:38:00.163Z,0.80
2018-09-23T11:40:28.527Z,1.13
2018-09-23T11:42:57.089Z,1.17
2018-09-23T11:45:25.442Z,0.67
2018-09-23T11:47:53.803Z,0.70
2018-09-23T11:50:22.235Z,0.97
2018-09-23T11:52:50.592Z,0.57
2018-09-23T11:55:19.007Z,0.60
2018-09-23T11:57:47.356Z,0.80
2018-09-23T12:00:15.727Z,0.60
2018-09-23T12:02:44.152Z,0.50
2018-09-23T12:05:12.515Z,0.83
2018-09-23T12:07:41.050Z,1.00
2018-09-23T12:10:09.463Z,0.80
2018-09-23T12:12:37.852Z,0.50
2018-09-23T12:15:06.322Z,0.70
2018-09-23T12:17:34.670Z,0.77
2018-09-23T12:20:03.299Z,0.80
2018-09-23T12:22:31.654Z,0.80
2018-09-23T12:25:00.024Z,0.50
2018-09-23T12:27:28.494Z,0.60
2018-09-23T12:29:56.866Z,0.80
2018-09-23T12:32:25.238Z,0.60
2018-09-23T12:34:53.590Z,0.73
2018-09-23T12:37:21.978Z,0.80
2018-09-23T12:39:50.461Z,0.87
2018-09-23T12:42:18.762Z,0.60
2018-09-23T12:44:47.178Z,0.80
2018-09-23T12:47:15.561Z,0.80
2018-09-23T12:49:45.635Z,0.47
2018-09-23T12:52:14.018Z,0.90
2018-09-23T12:54:42.458Z,0.50
2018-09-23T12:57:10.987Z,0.67
2018-09-23T12:59:39.345Z,0.70
2018-09-23T13:02:07.730Z,0.50
2018-09-23T13:04:36.190Z,0.60
2018-09-23T13:07:04.596Z,0.87
2018-09-23T13:09:33.190Z,0.70
2018-09-23T13:12:01.639Z,0.70
2018-09-23T13:14:30.071Z,0.90
2018-09-23T13:16:58.417Z,0.50
2018-09-23T13:19:26.939Z,0.70
2018-09-23T13:21:55.232Z,0.60
2018-09-23T13:24:23.607Z,0.60
2018-09-23T13:26:52.143Z,0.80
2018-09-23T13:29:20.535Z,0.50
2018-09-23T13:31:48.867Z,0.70
2018-09-23T13:34:17.336Z,0.70
2018-09-23T13:36:45.709Z,0.60
2018-09-23T13:39:14.239Z,0.50
2018-09-23T13:41:42.569Z,0.77
2018-09-23T13:44:11.106Z,0.60
2018-09-23T13:46:39.486Z,0.60
2018-09-23T13:49:07.923Z,0.80
2018-09-23T13:51:36.326Z,1.10
2018-09-23T13:54:04.686Z,0.83
2018-09-23T13:56:33.095Z,0.40
2018-09-23T13:59:01.451Z,0.80
2018-09-23T14:01:29.807Z,0.60
2018-09-23T14:03:58.195Z,0.70
2018-09-23T14:06:26.590Z,0.60
2018-09-23T14:08:54.982Z,0.60
2018-09-23T14:11:23.394Z,0.80
2018-09-23T14:13:52.642Z,0.50
2018-09-23T14:16:21.043Z,0.50
2018-09-23T14:18:49.414Z,0.70
2018-09-23T14:21:18.011Z,0.60
2018-09-23T14:23:46.366Z,0.93
2018-09-23T14:26:14.757Z,0.70
2018-09-23T14:28:43.199Z,0.80
2018-09-23T14:31:11.522Z,0.60
2018-09-23T14:33:40.031Z,0.77
2018-09-23T14:36:08.363Z,1.60
2018-09-23T14:38:36.725Z,1.80
2018-09-23T14:41:05.139Z,1.20
2018-09-23T14:43:33.558Z,1.20
2018-09-23T14:46:02.001Z,0.93
2018-09-23T14:48:30.387Z,0.50
2018-09-23T14:50:58.869Z,0.90
2018-09-23T14:53:27.502Z,0.87
2018-09-23T14:55:55.855Z,0.60
2018-09-23T14:58:24.278Z,8.87
2018-09-23T15:00:52.706Z,6.20
2018-09-23T15:03:21.136Z,0.77
2018-09-23T15:05:49.624Z,0.90
2018-09-23T15:08:18.137Z,0.53
2018-09-23T15:10:46.639Z,0.43
2018-09-23T15:13:15.103Z,0.40
2018-09-23T15:15:43.749Z,0.30
2018-09-23T15:18:12.187Z,0.37
2018-09-23T15:20:40.591Z,0.33
2018-09-23T15:23:09.171Z,0.50
2018-09-23T15:25:37.594Z,0.30
2018-09-23T15:28:06.028Z,0.30
2018-09-23T15:30:34.478Z,0.60
2018-09-23T15:33:02.892Z,0.47
2018-09-23T15:35:31.507Z,0.30
2018-09-23T15:37:59.883Z,0.33
2018-09-23T15:40:28.283Z,0.40
2018-09-23T15:42:56.851Z,0.47
2018-09-23T15:45:25.282Z,10.17
2018-09-23T15:47:53.694Z,0.87
2018-09-23T15:50:22.309Z,0.40
2018-09-23T15:52:50.751Z,0.30
2018-09-23T15:55:19.151Z,0.30
2018-09-23T15:57:47.621Z,0.40
2018-09-23T16:00:16.073Z,0.50
2018-09-23T16:02:44.505Z,0.40
2018-09-23T16:05:12.922Z,0.30
2018-09-23T16:07:41.591Z,0.53
2018-09-23T16:10:09.925Z,0.30
2018-09-23T16:12:38.338Z,0.40
2018-09-23T16:15:06.803Z,0.40
2018-09-23T16:17:35.222Z,0.30
2018-09-23T16:20:03.693Z,0.30
2018-09-23T16:22:32.122Z,0.30
2018-09-23T16:25:00.549Z,0.20
2018-09-23T16:27:29.124Z,0.27
2018-09-23T16:29:57.522Z,0.30
2018-09-23T16:32:25.922Z,0.30
2018-09-23T16:34:54.526Z,0.30
2018-09-23T16:37:22.955Z,0.20
2018-09-23T16:39:51.367Z,0.30
2018-09-23T16:42:19.843Z,0.50
2018-09-23T16:44:48.330Z,4.37
2018-09-23T16:47:16.778Z,4.40
2018-09-23T16:49:45.441Z,0.67
2018-09-23T16:52:13.844Z,0.30
2018-09-23T16:54:42.514Z,0.30
2018-09-23T16:57:10.863Z,0.30
2018-09-23T16:59:39.739Z,0.30
2018-09-23T17:02:08.166Z,0.60
2018-09-23T17:04:36.642Z,0.30
2018-09-23T17:07:05.110Z,0.40
2018-09-23T17:09:33.670Z,0.60
2018-09-23T17:12:02.131Z,0.50
2018-09-23T17:14:30.587Z,0.40
2018-09-23T17:16:59.429Z,0.40
2018-09-23T17:19:27.842Z,0.50
2018-09-23T17:21:56.235Z,0.50
2018-09-23T17:24:24.693Z,0.63
2018-09-23T17:26:53.122Z,0.50
2018-09-23T17:29:21.642Z,0.90
2018-09-23T17:31:50.031Z,0.50
2018-09-23T17:34:18.393Z,0.33
2018-09-23T17:36:46.864Z,0.40
2018-09-23T17:39:15.260Z,0.40
2018-09-23T17:41:43.695Z,0.30
2018-09-23T17:44:12.130Z,0.50
2018-09-23T17:46:40.559Z,0.47
2018-09-23T17:49:09.026Z,0.40
2018-09-23T17:51:38.312Z,0.40
2018-09-23T17:54:06.857Z,0.40
2018-09-23T17:56:35.333Z,0.40
2018-09-23T17:59:04.077Z,0.30
2018-09-23T18:01:32.596Z,1.33
2018-09-23T18:04:01.058Z,9.50
2018-09-23T18:06:29.636Z,2.00
2018-09-23T18:08:58.062Z,0.40
2018-09-23T18:11:26.495Z,0.60
2018-09-23T18:13:55.112Z,0.30
2018-09-23T18:16:23.530Z,0.50
2018-09-23T18:18:52.402Z,0.40
2018-09-23T18:21:20.800Z,0.40
2018-09-23T18:23:49.631Z,0.40
2018-09-23T18:26:18.122Z,0.30
2018-09-23T18:28:46.532Z,0.30
2018-09-23T18:31:14.968Z,0.30
2018-09-23T18:33:43.395Z,0.30
2018-09-23T18:36:11.839Z,0.30
2018-09-23T18:38:40.292Z,0.40
2018-09-23T18:41:08.927Z,0.60
2018-09-23T18:43:37.344Z,0.40
2018-09-23T18:46:05.781Z,0.50
2018-09-23T18:48:38.775Z,0.40
2018-09-23T18:51:07.274Z,2.60
2018-09-23T18:53:35.686Z,4.20
2018-09-23T18:56:04.264Z,0.40
2018-09-23T18:58:32.670Z,0.50
2018-09-23T19:01:01.034Z,0.40
2018-09-23T19:03:29.479Z,0.40
2018-09-23T19:05:57.863Z,0.47
2018-09-23T19:08:26.344Z,0.43
2018-09-23T19:10:54.727Z,0.53
2018-09-23T19:13:28.362Z,0.40
2018-09-23T19:16:02.054Z,0.50
2018-09-23T19:18:35.642Z,0.40
2018-09-23T19:21:04.030Z,0.40
2018-09-23T19:23:32.533Z,0.47
2018-09-23T19:26:00.922Z,0.60
2018-09-23T19:28:29.263Z,0.70
2018-09-23T19:30:57.661Z,0.40
2018-09-23T19:33:31.478Z,0.70
2018-09-23T19:35:59.934Z,0.50
2018-09-23T19:38:28.375Z,0.40
2018-09-23T19:40:56.775Z,0.40
2018-09-23T19:43:25.212Z,0.50
2018-09-23T19:45:53.611Z,0.47
2018-09-23T19:48:22.102Z,0.40
2018-09-23T19:50:50.506Z,0.47
2018-09-23T19:53:19.062Z,0.53
2018-09-23T19:55:47.548Z,2.40
2018-09-23T19:58:16.097Z,1.40
2018-09-23T20:00:44.550Z,0.57
2018-09-23T20:03:12.950Z,12.97
2018-09-23T20:05:41.598Z,6.40
2018-09-23T20:08:10.031Z,1.53
2018-09-23T20:10:38.432Z,0.60
2018-09-23T20:13:07.022Z,0.60
2018-09-23T20:15:35.457Z,0.50
2018-09-23T20:18:03.882Z,0.50
2018-09-23T20:20:32.365Z,0.70
2018-09-23T20:23:01.879Z,0.60
2018-09-23T20:25:30.315Z,0.40
2018-09-23T20:27:58.736Z,0.60
2018-09-23T20:30:27.161Z,0.67
2018-09-23T20:32:55.607Z,1.10
2018-09-23T20:35:24.010Z,0.73
2018-09-23T20:37:52.772Z,0.50
2018-09-23T20:40:21.180Z,0.83
2018-09-23T20:42:49.649Z,0.70
2018-09-23T20:45:18.034Z,0.60
2018-09-23T20:47:46.480Z,0.40
2018-09-23T20:50:14.930Z,0.60
2018-09-23T20:52:43.378Z,2.00
2018-09-23T20:55:12.126Z,3.83
2018-09-23T20:57:40.666Z,0.60
2018-09-23T21:00:09.139Z,0.30
2018-09-23T21:02:37.598Z,0.30
2018-09-23T21:05:06.277Z,0.53
2018-09-23T21:07:34.870Z,0.50
2018-09-23T21:10:03.362Z,0.43
2018-09-23T21:12:31.879Z,0.40
2018-09-23T21:15:00.454Z,0.60
2018-09-23T21:17:28.844Z,0.40
2018-09-23T21:19:57.295Z,0.43
2018-09-23T21:22:25.872Z,0.50
2018-09-23T21:24:54.239Z,0.50
2018-09-23T21:27:22.666Z,0.30
2018-09-23T21:29:51.075Z,0.50
2018-09-23T21:32:23.346Z,0.40
2018-09-23T21:34:51.926Z,0.40
2018-09-23T21:37:20.326Z,0.37
2018-09-23T21:39:48.698Z,0.50
2018-09-23T21:42:17.114Z,0.90
2018-09-23T21:44:45.459Z,0.40
2018-09-23T21:47:13.861Z,1.10
2018-09-23T21:49:42.346Z,1.00
2018-09-23T21:52:10.790Z,0.77
2018-09-23T21:54:39.232Z,0.77
2018-09-23T21:57:07.755Z,0.90
2018-09-23T21:59:36.175Z,1.00
2018-09-23T22:02:04.654Z,0.70
2018-09-23T22:04:33.251Z,0.80
2018-09-23T22:07:01.657Z,0.80
2018-09-23T22:09:30.319Z,1.20
2018-09-23T22:11:58.783Z,1.00
2018-09-23T22:14:31.714Z,1.00
2018-09-23T22:17:00.246Z,1.00
2018-09-23T22:19:28.652Z,1.10
2018-09-23T22:21:57.055Z,2.17
2018-09-23T22:24:25.483Z,1.00
2018-09-23T22:26:53.887Z,1.60
2018-09-23T22:29:22.457Z,1.03
2018-09-23T22:31:50.852Z,0.90
2018-09-23T22:34:19.238Z,1.10
2018-09-23T22:36:47.807Z,0.93
2018-09-23T22:39:16.374Z,0.87
2018-09-23T22:41:44.782Z,1.30
2018-09-23T22:44:13.359Z,0.87
2018-09-23T22:46:41.742Z,1.03
2018-09-23T22:49:10.143Z,1.20
2018-09-23T22:51:38.570Z,1.20
2018-09-23T22:54:07.154Z,1.10
2018-09-23T22:56:35.719Z,1.60
2018-09-23T22:59:04.140Z,1.40
2018-09-23T23:01:32.566Z,1.60
2018-09-23T23:04:01.003Z,1.10
2018-09-23T23:06:29.398Z,1.20
2018-09-23T23:08:57.835Z,1.00
2018-09-23T23:11:26.251Z,1.20
2018-09-23T23:13:54.937Z,1.13
2018-09-23T23:16:23.331Z,1.10
2018-09-23T23:18:51.764Z,1.27
2018-09-23T23:21:20.569Z,1.30
2018-09-23T23:23:48.937Z,1.40
2018-09-23T23:26:17.375Z,1.00
2018-09-23T23:28:45.767Z,1.30
2018-09-23T23:31:14.170Z,1.27
2018-09-23T23:33:42.607Z,1.03
2018-09-23T23:36:10.982Z,1.07
2018-09-23T23:38:39.410Z,1.17
2018-09-23T23:41:07.786Z,1.27
2018-09-23T23:43:36.203Z,1.27
2018-09-23T23:46:04.590Z,1.10
2018-09-23T23:48:32.959Z,1.30
2018-09-23T23:51:01.370Z,1.63
2018-09-23T23:53:29.747Z,1.40
2018-09-23T23:55:58.154Z,1.40
2018-09-23T23:58:26.527Z,1.50
